Time;durP1;ratioP1;P1;durP2;ratioP2;P2;SDS_P1;SDS_P2;PMS_P1;PMS_P2;Temp;Humidity;BMP_temperature;BMP_pressure;BME280_temperature;BME280_humidity;BME280_pressure;Samples;Min_cycle;Max_cycle;Signal;HPM_P1;HPM_P2
2022/10/06 00:00:02;;;;;;;10.07;1.73;;;;;;;17.47;70.50;100808.94;4897336;28;119715;-72
2022/10/06 00:02:34;;;;;;;15.20;2.05;;;;;;;17.46;70.57;100807.41;4910007;28;120092;-71
2022/10/06 00:05:02;;;;;;;14.05;2.65;;;;;;;17.48;70.63;100822.31;4910082;28;119972;-71
2022/10/06 00:07:28;;;;;;;8.68;1.70;;;;;;;17.47;70.63;100828.34;4899570;28;119946;-72
2022/10/06 00:09:54;;;;;;;14.18;2.28;;;;;;;17.42;70.57;100818.75;4917072;28;120505;-72
2022/10/06 00:12:19;;;;;;;13.13;1.90;;;;;;;17.43;70.62;100828.56;4909825;28;119858;-71
2022/10/06 00:14:54;;;;;;;10.70;2.05;;;;;;;17.41;70.67;100816.47;4906641;28;120774;-71
2022/10/06 00:17:20;;;;;;;12.27;1.75;;;;;;;17.41;70.73;100825.53;4908088;28;120101;-72
2022/10/06 00:20:09;;;;;;;16.10;2.22;;;;;;;17.41;70.48;100835.88;4894630;28;120274;-72
2022/10/06 00:22:38;;;;;;;13.10;1.90;;;;;;;17.39;70.33;100847.47;4907525;28;119825;-71
2022/10/06 00:25:05;;;;;;;12.10;1.77;;;;;;;17.40;70.31;100845.44;4916944;28;120542;-72
2022/10/06 00:27:39;;;;;;;14.35;2.08;;;;;;;17.39;70.34;100858.56;4909352;28;119896;-71
2022/10/06 00:30:09;;;;;;;9.63;1.85;;;;;;;17.38;70.43;100853.50;4893263;28;120074;-71
2022/10/06 00:32:35;;;;;;;16.98;2.75;;;;;;;17.31;70.11;100846.41;4901888;28;120153;-71
2022/10/06 00:35:01;;;;;;;16.50;2.13;;;;;;;17.32;70.25;100859.00;4914143;28;119421;-71
2022/10/06 00:37:28;;;;;;;13.30;2.30;;;;;;;17.32;70.25;100852.72;4912971;28;119648;-71
2022/10/06 00:40:08;;;;;;;13.30;2.17;;;;;;;17.34;70.75;100855.75;4910528;28;119852;-71
2022/10/06 00:42:33;;;;;;;;;;;;;;;17.32;70.22;100858.25;4914624;28;119544;-71
2022/10/06 00:45:02;;;;;;;15.15;2.05;;;;;;;17.35;70.17;100860.03;4891043;28;120742;-71
2022/10/06 00:47:32;;;;;;;11.32;1.77;;;;;;;17.27;70.34;100856.19;4904262;28;120328;-71
2022/10/06 00:50:01;;;;;;;14.95;2.40;;;;;;;17.25;70.34;100856.66;4891108;28;119702;-72
2022/10/06 00:52:30;;;;;;;12.50;2.17;;;;;;;17.29;70.46;100881.41;4908027;28;120698;-72
2022/10/06 00:54:58;;;;;;;12.35;1.90;;;;;;;17.26;70.71;100869.28;4911716;28;119526;-71
2022/10/06 00:57:25;;;;;;;15.77;2.40;;;;;;;17.28;70.14;100891.75;4908670;28;120126;-71
2022/10/06 00:59:51;;;;;;;13.05;2.30;;;;;;;17.28;70.58;100891.00;4907678;28;120472;-71
2022/10/06 01:02:24;;;;;;;15.80;2.50;;;;;;;17.28;70.39;100902.06;4890499;28;121570;-71
2022/10/06 01:04:55;;;;;;;13.30;2.33;;;;;;;17.30;70.24;100891.25;4908444;28;120071;-71
2022/10/06 01:07:25;;;;;;;14.55;2.65;;;;;;;17.30;70.24;100878.16;4901644;28;120437;-71
2022/10/06 01:09:51;;;;;;;15.27;2.90;;;;;;;17.30;70.49;100894.03;4905637;28;119379;-71
2022/10/06 01:12:18;;;;;;;21.15;3.20;;;;;;;17.30;70.38;100897.56;4905460;28;120779;-71
2022/10/06 01:14:48;;;;;;;18.10;2.45;;;;;;;17.25;70.62;100883.63;4906338;28;119945;-71
2022/10/06 01:17:35;;;;;;;11.70;2.55;;;;;;;17.26;70.28;100883.13;4910219;28;119926;-71
2022/10/06 01:20:10;;;;;;;11.77;2.50;;;;;;;17.25;70.35;100898.25;4911641;28;119895;-71
2022/10/06 01:22:42;;;;;;;15.45;2.55;;;;;;;17.24;70.25;100912.59;4906388;28;120059;-71
2022/10/06 01:25:11;;;;;;;12.73;2.00;;;;;;;17.19;70.10;100905.78;4906800;28;119661;-71
2022/10/06 01:27:39;;;;;;;11.85;1.95;;;;;;;17.21;70.12;100919.91;4907005;28;120027;-71
2022/10/06 01:30:08;;;;;;;10.90;2.30;;;;;;;17.12;70.09;100911.75;4906705;28;119639;-71
2022/10/06 01:32:37;;;;;;;12.50;2.30;;;;;;;17.14;70.16;100925.88;4910165;28;119585;-71
2022/10/06 01:35:06;;;;;;;11.93;2.25;;;;;;;17.12;69.96;100922.84;4905589;28;119668;-70
2022/10/06 01:37:32;;;;;;;18.05;2.60;;;;;;;17.09;69.67;100934.91;4926846;28;119849;-71
2022/10/06 01:40:00;;;;;;;11.77;2.25;;;;;;;17.05;69.90;100935.13;4906395;28;120099;-72
2022/10/06 01:42:30;;;;;;;19.50;2.47;;;;;;;17.02;69.51;100938.88;4907830;28;119826;-71
2022/10/06 01:44:56;;;;;;;18.35;2.88;;;;;;;16.98;69.43;100949.41;4906198;28;119399;-71
2022/10/06 01:47:48;;;;;;;19.13;2.75;;;;;;;16.89;68.92;100957.88;4900204;28;120133;-71
2022/10/06 01:50:14;;;;;;;16.75;3.28;;;;;;;16.88;69.19;100953.59;4910252;28;119766;-71
2022/10/06 01:52:40;;;;;;;14.57;2.70;;;;;;;16.85;69.48;100974.72;4909610;28;120524;-72
2022/10/06 01:55:07;;;;;;;;;;;;;;;16.81;69.00;100965.09;4894379;28;119763;-72
2022/10/06 01:57:38;;;;;;;;;;;;;;;16.78;69.02;100972.34;4908264;28;119922;-72
2022/10/06 02:00:04;;;;;;;;;;;;;;;16.76;68.83;100974.84;4915295;28;120444;-71
2022/10/06 02:02:39;;;;;;;;;;;;;;;16.75;68.77;100978.88;4911645;28;119669;-72
2022/10/06 02:05:05;;;;;;;;;;;;;;;16.75;68.86;100978.88;4893855;28;120712;-71
2022/10/06 02:07:33;;;;;;;;;;;;;;;16.75;68.66;100983.66;4903645;28;119940;-71
2022/10/06 02:09:59;;;;;;;;;;;;;;;16.76;68.50;100982.41;4909120;28;119548;-71
2022/10/06 02:12:25;;;;;;;;;;;;;;;16.78;68.56;100993.75;4913404;28;119790;-71
2022/10/06 02:14:51;;;;;;;;;;;;;;;16.79;68.69;100990.50;4894065;28;119863;-72
2022/10/06 02:17:16;;;;;;;;;;;;;;;16.79;68.69;100995.28;4912162;28;119478;-72
2022/10/06 02:19:42;;;;;;;;;;;;;;;16.78;68.70;101004.84;4915847;28;119506;-72
2022/10/06 02:22:07;;;;;;;;;;;;;;;16.79;68.81;101006.34;4915463;28;119457;-71
2022/10/06 02:24:34;;;;;;;;;;;;;;;16.81;68.84;101006.66;4910373;28;121874;-72
2022/10/06 02:27:00;;;;;;;;;;;;;;;16.84;68.94;101025.09;4897536;28;119909;-71
2022/10/06 02:29:26;;;;;;;;;;;;;;;16.85;68.82;101029.38;4906442;28;120295;-71
2022/10/06 02:31:53;;;;;;;;;;;;;;;16.84;68.80;101036.91;4925162;28;120057;-71
2022/10/06 02:34:19;;;;;;;;;;;;;;;16.82;68.65;101036.66;4905521;28;119810;-72
2022/10/06 02:36:45;;;;;;;;;;;;;;;16.82;68.77;101042.19;4912486;28;119396;-71
2022/10/06 02:39:10;;;;;;;;;;;;;;;16.82;68.76;101033.13;4898496;28;119566;-72
2022/10/06 02:41:36;;;;;;;;;;;;;;;16.82;68.61;101033.13;4912145;28;120115;-71
2022/10/06 02:44:02;;;;;;;;;;;;;;;16.79;68.41;101054.22;4911162;28;119449;-71
2022/10/06 02:46:30;;;;;;;;;;;;;;;16.81;68.19;101056.53;4906594;28;122040;-72
2022/10/06 02:48:55;;;;;;;;;;;;;;;16.80;68.37;101052.22;4905345;28;119581;-71
2022/10/06 02:51:25;;;;;;;;;;;;;;;16.80;68.36;101063.31;4915677;28;120385;-72
2022/10/06 02:53:51;;;;;;;;;;;;;;;16.79;68.08;101059.00;4913669;28;120169;-71
2022/10/06 02:56:21;;;;;;;;;;;;;;;16.79;68.16;101072.84;4911464;28;119846;-71
2022/10/06 02:58:47;;;;;;;;;;;;;;;16.78;67.75;101071.31;4923245;28;119707;-71
2022/10/06 03:01:20;;;;;;;;;;;;;;;16.75;67.52;101067.50;4910710;28;120153;-72
2022/10/06 03:03:46;;;;;;;;;;;;;;;16.75;67.47;101072.28;4910300;28;119932;-72
2022/10/06 03:06:30;;;;;;;;;;;;;;;16.77;67.53;101080.88;4893911;28;120963;-71
2022/10/06 03:09:39;;;;;;;;;;;;;;;16.79;67.04;101100.56;4914317;28;119551;-71
2022/10/06 03:12:07;;;;;;;;;;;;;;;16.79;67.20;101090.22;4921597;28;119348;-71
2022/10/06 03:14:38;;;;;;;;;;;;;;;16.80;67.06;101100.09;4891320;28;119532;-71
2022/10/06 03:17:07;;;;;;;;;;;;;;;16.82;66.82;101102.38;4906087;28;119443;-72
2022/10/06 03:19:35;;;;;;;;;;;;;;;16.80;66.88;101111.16;4909466;28;119867;-71
2022/10/06 03:22:00;;;;;;;;;;;;;;;16.79;66.34;101125.47;4913737;28;119994;-71
2022/10/06 03:24:52;;;;;;;;;;;;;;;16.76;66.36;101129.97;4907758;28;119798;-71
2022/10/06 03:27:19;;;;;;;;;;;;;;;16.75;66.33;101127.69;4909357;28;121114;-71
2022/10/06 03:29:45;;;;;;;;;;;;;;;16.75;66.39;101138.78;4913708;28;119855;-71
2022/10/06 03:32:12;;;;;;;;;;;;;;;16.71;66.31;101138.22;4909942;28;119959;-71
2022/10/06 03:34:41;;;;;;;;;;;;;;;16.70;66.46;101136.69;4904645;28;119571;-71
2022/10/06 03:37:10;;;;;;;;;;;;;;;16.69;66.32;101140.72;4893354;28;119656;-71
2022/10/06 03:39:37;;;;;;;;;;;;;;;16.69;66.03;101141.47;4908784;28;120061;-71
2022/10/06 03:42:02;;;;;;;;;;;;;;;16.65;65.87;101154.72;4913193;28;119295;-71
2022/10/06 03:44:28;;;;;;;;;;;;;;;16.64;65.69;101160.75;4904600;28;119765;-71
2022/10/06 03:47:06;;;;;;;;;;;;;;;16.64;65.77;101160.75;4908449;28;120086;-71
2022/10/06 03:49:54;;;;;;;;;;;;;;;16.64;65.72;101172.59;4910936;28;119459;-71
2022/10/06 03:52:21;;;;;;;;;;;;;;;16.64;65.66;101160.75;4915784;28;120250;-71
2022/10/06 03:54:46;;;;;;;;;;;;;;;16.63;65.69;101167.53;4909516;28;119930;-71
2022/10/06 03:57:12;;;;;;;;;;;;;;;16.60;65.14;101168.50;4913079;28;120048;-71
2022/10/06 03:59:38;;;;;;;;;;;;;;;16.57;65.50;101168.22;4916825;28;120481;-71
2022/10/06 04:02:05;;;;;;;;;;;;;;;16.57;65.49;101170.22;4909471;28;119970;-71
2022/10/06 04:04:34;;;;;;;;;;;;;;;16.55;65.59;101178.22;4909476;28;119993;-71
2022/10/06 04:07:04;;;;;;;;;;;;;;;16.55;65.59;101181.00;4897825;28;120165;-71
2022/10/06 04:09:30;;;;;;;;;;;;;;;16.55;65.63;101197.63;4902573;28;120032;-72
2022/10/06 04:11:57;;;;;;;;;;;;;;;16.56;65.71;101197.16;4926034;28;119905;-71
2022/10/06 04:14:23;;;;;;;;;;;;;;;16.57;65.57;101207.00;4908648;28;120035;-71
2022/10/06 04:17:10;;;;;;;;;;;;;;;16.61;65.41;101217.88;4887647;28;120959;-71
2022/10/06 04:19:38;;;;;;;;;;;;;;;16.62;65.33;101222.16;4887016;28;122608;-71
2022/10/06 04:22:04;;;;;;;;;;;;;;;16.63;65.28;101223.69;4929467;28;119714;-71
2022/10/06 04:24:30;;;;;;;;;;;;;;;16.63;64.85;101226.47;4907764;28;119891;-71
2022/10/06 04:30:08;;;;;;;;;;;;;;;16.60;64.80;101246.06;4899435;28;120127;-71
2022/10/06 04:32:34;;;;;;;;;;;;;;;16.61;64.71;101253.13;4904059;28;119483;-71
2022/10/06 04:35:03;;;;;;;;;;;;;;;16.62;64.83;101260.19;4909337;28;119542;-69
2022/10/06 04:37:32;;;;;;;;;;;;;;;16.64;64.76;101257.69;4893626;28;119477;-70
2022/10/06 04:39:58;;;;;;;;;;;;;;;16.66;64.64;101269.06;4909398;28;119650;-70
2022/10/06 04:42:24;;;;;;;;;;;;;;;16.66;64.34;101274.59;4908698;28;120103;-69
2022/10/06 04:44:50;;;;;;;;;;;;;;;16.66;64.30;101274.59;4907368;28;119997;-70
2022/10/06 04:47:16;;;;;;;;;;;;;;;16.68;64.47;101280.44;4906904;28;121516;-69
2022/10/06 04:49:41;;;;;;;;;;;;;;;16.68;64.38;101280.44;4908565;28;120077;-70
2022/10/06 04:52:07;;;;;;;;;;;;;;;16.66;64.48;101280.13;4907594;28;119581;-70
2022/10/06 04:54:35;;;;;;;;;;;;;;;16.67;64.62;101292.78;4907740;28;120340;-69
2022/10/06 04:57:03;;;;;;;;;;;;;;;16.69;64.64;101295.81;4911418;28;119328;-70
2022/10/06 05:02:15;;;;;;;;;;;;;;;16.65;65.33;101303.53;4891646;28;120188;-70
2022/10/06 05:04:42;;;;;;;;;;;;;;;16.61;65.42;101320.34;4908045;28;120031;-69
2022/10/06 05:07:09;;;;;;;;;;;;;;;16.58;65.70;101324.84;4906676;28;119477;-69
2022/10/06 05:09:35;;;;;;;;;;;;;;;16.57;65.58;101331.63;4907841;28;120539;-69
2022/10/06 05:12:24;;;;;;;;;;;;;;;16.52;65.98;101332.25;4911651;28;120034;-69
2022/10/06 05:14:50;;;;;;;;;;;;;;;16.48;66.07;101342.75;4894068;28;119854;-69
2022/10/06 05:17:16;;;;;;;;;;;;;;;16.47;66.26;101340.47;4907672;28;119649;-69
2022/10/06 05:19:42;;;;;;;;;;;;;;;16.46;66.33;101356.31;4917971;28;119963;-69
2022/10/06 05:22:08;;;;;;;;;;;;;;;16.44;65.97;101367.13;4924404;28;119824;-69
2022/10/06 05:24:34;;;;;;;;;;;;;;;16.42;66.16;101366.06;4911538;28;119548;-70
2022/10/06 05:27:02;;;;;;;;;;;;;;;16.40;66.14;101369.31;4911078;28;120745;-70
2022/10/06 05:29:32;;;;;;;;;;;;;;;16.38;66.25;101369.03;4893995;28;120208;-69
2022/10/06 05:31:58;;;;;;;;;;;;;;;16.37;66.40;101375.03;4912883;28;119804;-70
2022/10/06 05:34:25;;;;;;;;;;;;;;;16.36;66.00;101388.09;4894614;28;120871;-70
2022/10/06 05:36:51;;;;;;;;;;;;;;;16.35;65.96;101394.88;4910332;28;120162;-69
2022/10/06 05:39:17;;;;;;;;;;;;;;;16.39;66.30;101400.25;4910257;28;119572;-70
2022/10/06 05:41:47;;;;;;;;;;;;;;;16.43;66.36;101395.28;4920454;28;120219;-69
2022/10/06 05:44:13;;;;;;;;;;;;;;;16.46;66.19;101410.94;4911473;28;119830;-70
2022/10/06 05:46:40;;;;;;;;;;;;;;;16.50;66.01;101405.97;4909359;28;120298;-69
2022/10/06 05:49:09;;;;;;;;;;;;;;;16.51;65.92;101413.06;4908724;28;119536;-70
2022/10/06 05:51:35;;;;;;;;;;;;;;;16.53;65.73;101416.88;4914362;28;119664;-70
2022/10/06 05:54:06;;;;;;;;;;;;;;;16.55;65.49;101422.69;4912069;28;119763;-69
2022/10/06 05:56:33;;;;;;;;;;;;;;;16.57;66.08;101436.09;4908510;28;120550;-69
2022/10/06 05:59:20;;;;;;;;;;;;;;;16.60;65.99;101464.84;4869726;28;119819;-69
2022/10/06 06:01:49;;;;;;;;;;;;;;;16.42;65.76;101433.28;4911673;28;120033;-70
2022/10/06 06:04:35;;;;;;;;;;;;;;;16.55;65.88;101450.41;4909870;28;120518;-70
2022/10/06 06:07:23;;;;;;;;;;;;;;;16.48;66.49;101453.53;4911588;28;120229;-70
2022/10/06 06:09:49;;;;;;;;;;;;;;;16.42;66.59;101469.28;4912751;28;120311;-70
2022/10/06 06:12:15;;;;;;;;;;;;;;;16.39;67.04;101466.69;4910226;28;119635;-69
2022/10/06 06:18:00;;;;;;;;;;;;;;;16.27;66.86;101477.50;4924300;28;120109;-69
2022/10/06 06:20:26;;;;;;;;;;;;;;;16.24;67.51;101475.69;4910507;28;119956;-70
2022/10/06 06:22:52;;;;;;;;;;;;;;;16.25;67.35;101490.28;4910654;28;121231;-70
2022/10/06 06:25:19;;;;;;;;;;;;;;;16.26;67.43;101491.81;4913355;28;119704;-70
2022/10/06 06:27:46;;;;;;;;;;;;;;;16.30;67.72;101492.41;4909303;28;120327;-69
2022/10/06 06:30:14;;;;;;;;;;;;;;;16.35;67.53;101502.09;4909749;28;119786;-69
2022/10/06 06:32:40;;;;;;;;;;;;;;;16.37;67.39;101514.22;4917683;28;119995;-69
2022/10/06 06:35:10;;;;;;;;;;;;;;;16.40;67.59;101512.53;4909725;28;119766;-72
2022/10/06 06:37:36;;;;;;;;;;;;;;;16.44;67.67;101519.41;4924215;28;119933;-72
2022/10/06 06:40:01;;;;;;;;;;;;;;;16.49;67.63;101518.00;4906026;28;119711;-69
2022/10/06 06:42:35;;;;;;;;;;;;;;;16.53;67.38;101533.19;4907964;28;119456;-69
2022/10/06 06:45:26;;;;;;;;;;;;;;;16.56;67.28;101535.03;4924023;28;120240;-70
2022/10/06 06:48:41;;;;;;;;;;;;;;;16.57;66.90;101522.72;4995481;27;119612;-71
2022/10/06 06:51:10;;;;;;;;;;;;;;;16.56;66.74;101542.56;4982504;27;120365;-70
2022/10/06 06:53:35;;;;;;;;;;;;;;;16.55;66.78;101539.03;4979628;28;119924;-71
2022/10/06 06:56:02;;;;;;;;;;;;;;;16.57;66.50;101544.13;4983176;28;120025;-70
2022/10/06 06:58:31;;;;;;;;;;;;;;;16.58;66.76;101551.19;4977809;28;119942;-71
2022/10/06 07:01:12;;;;;;;;;;;;;;;16.60;66.18;101550.72;4980232;28;118998;-71
2022/10/06 07:03:44;;;;;;;;;;;;;;;16.59;66.01;101558.25;4973075;28;119559;-71
2022/10/06 07:06:12;;;;;;;;;;;;;;;16.63;66.21;101566.38;4971504;28;119640;-70
2022/10/06 07:08:42;;;;;;;;;;;;;;;16.65;66.32;101577.75;4963184;28;120024;-71
2022/10/06 07:11:13;;;;;;;;;;;;;;;16.69;66.13;101567.28;4976102;28;119776;-71
2022/10/06 07:13:42;;;;;;;;;;;;;;;16.73;65.54;101590.03;4974120;28;119877;-71
2022/10/06 07:27:12;;;;;;;;;;;;;;;16.91;64.94;101587.16;4976262;28;120273;-71
2022/10/06 07:29:37;;;;;;;;;;;;;;;17.02;64.80;101597.69;4977125;28;120058;-71
2022/10/06 07:32:24;;;;;;;;;;;;;;;17.06;64.36;101609.41;4983713;28;120253;-71
2022/10/06 07:34:51;;;;;;;;;;;;;;;17.08;64.27;101604.91;4983127;28;120044;-71
2022/10/06 07:37:17;;;;;;;;;;;;;;;17.12;64.14;101613.03;4976960;28;119910;-71
2022/10/06 07:39:43;;;;;;;;;;;;;;;17.15;64.00;101623.94;4971821;28;119949;-70
2022/10/06 07:42:46;;;;;;;;;;;;;;;17.23;64.07;101626.34;4978981;28;120126;-71
2022/10/06 07:45:43;;;;;;;;;;;;;;;17.28;64.00;101636.81;4960673;28;120854;-71
2022/10/06 07:48:14;;;;;;;;;;;;;;;17.33;63.68;101648.00;4977201;28;119933;-71
2022/10/06 07:50:41;;;;;;;;;;;;;;;17.38;63.50;101646.59;4994814;27;120136;-71
2022/10/06 07:53:08;;;;;;;;;;;;;;;17.47;63.35;101652.03;4996750;27;120256;-71
2022/10/06 07:55:40;;;;;;;;;;;;;;;17.53;62.83;101657.72;5001174;27;120203;-71
2022/10/06 07:58:25;;;;;;;;;;;;;;;17.60;62.64;101660.88;4994080;27;120084;-71
2022/10/06 08:00:53;;;;;;;;;;;;;;;17.66;62.66;101658.22;4986655;28;119958;-71
2022/10/06 08:03:19;;;;;;;;;;;;;;;17.74;62.52;101668.50;4982628;28;120096;-71
2022/10/06 08:05:45;;;;;;;;;;;;;;;17.81;62.00;101663.81;4979138;28;121096;-71
2022/10/06 08:08:18;;;;;;;;;;;;;;;17.87;61.76;101667.47;4972395;28;119839;-71
2022/10/06 08:10:50;;;;;;;;;;;;;;;17.92;61.19;101675.13;4975097;28;120447;-71
2022/10/06 08:13:16;;;;;;;;;;;;;;;17.96;61.20;101682.00;4973875;28;120097;-71
2022/10/06 08:15:41;;;;;;;;;;;;;;;18.01;60.75;101686.16;4972256;28;119705;-71
2022/10/06 08:18:07;;;;;;;;;;;;;;;18.05;60.82;101686.72;4987236;28;120032;-71
2022/10/06 08:20:32;;;;;;;;;;;;;;;18.06;60.50;101694.56;4977235;28;120029;-71
2022/10/06 08:22:58;;;;;;;;;;;;;;;18.10;60.39;101689.59;4978570;28;119530;-71
2022/10/06 08:25:24;;;;;;;;;;;;;;;18.15;60.27;101699.25;4973769;28;121263;-71
2022/10/06 08:27:49;;;;;;;;;;;;;;;18.20;59.78;101706.13;4975248;28;119925;-71
2022/10/06 08:30:33;;;;;;;;;;;;;;;18.23;60.03;101707.97;4977365;28;120142;-71
2022/10/06 08:33:00;;;;;;;;;;;;;;;18.27;60.17;101716.88;4976046;28;120514;-71
2022/10/06 08:35:25;;;;;;;;;;;;;;;18.30;59.87;101721.47;4971916;28;119594;-71
2022/10/06 08:37:52;;;;;;;;;;;;;;;18.32;59.30;101719.75;4975180;28;120235;-71
2022/10/06 08:40:17;;;;;;;;;;;;;;;18.33;59.72;101726.84;4987458;28;120149;-70
2022/10/06 08:42:51;;;;;;;;;;;;;;;18.34;58.96;101733.91;4966682;28;119490;-71
2022/10/06 08:45:22;;;;;;;;;;;;;;;18.39;58.94;101746.38;5007266;27;120088;-71
2022/10/06 08:48:14;;;;;;;;;;;;;;;18.43;59.21;101741.38;4983545;28;120061;-71
2022/10/06 08:50:51;;;;;;;;;;;;;;;18.48;58.94;101756.63;4971114;28;119517;-70
2022/10/06 08:53:22;;;;;;;;;;;;;;;18.51;58.53;101741.78;4975000;28;120980;-71
2022/10/06 08:55:59;;;;;;;;;;;;;;;18.56;58.27;101755.00;4974223;28;120969;-71
2022/10/06 08:58:29;;;;;;;;;;;;;;;18.58;57.81;101760.84;4980376;28;120837;-71
2022/10/06 09:00:59;;;;;;;;;;;;;;;18.52;58.12;101754.44;4980631;28;120096;-71
2022/10/06 09:03:28;;;;;;;;;;;;;;;18.62;57.58;101766.97;4989647;28;119992;-71
2022/10/06 09:05:59;;;;;;;;;;;;;;;18.64;57.69;101775.63;4982916;28;119940;-71
2022/10/06 09:08:49;;;;;;;;;;;;;;;18.59;57.44;101779.03;4985495;28;119679;-71
2022/10/06 09:11:31;;;;;;;;;;;;;;;18.52;56.85;101777.41;4968431;28;119660;-71
2022/10/06 09:14:12;;;;;;;;;;;;;;;18.57;57.32;101784.31;4979491;28;120201;-70
2022/10/06 09:16:40;;;;;;;;;;;;;;;18.69;56.44;101795.19;4978834;28;119917;-71
2022/10/06 09:19:05;;;;;;;;;;;;;;;18.77;56.71;101787.22;4979050;28;119602;-71
2022/10/06 09:21:37;;;;;;;;;;;;;;;18.78;56.45;101788.75;4981156;28;120166;-71
2022/10/06 09:24:37;;;;;;;;;;;;;;;18.80;56.75;101791.81;4984145;28;119916;-71
2022/10/06 09:27:18;;;;;;;;;;;;;;;18.91;57.20;101796.75;4981476;28;120651;-71
2022/10/06 09:29:44;;;;;;;;;;;;;;;19.00;56.53;101800.22;4982384;28;120040;-70
2022/10/06 09:32:11;;;;;;;;;;;;;;;19.07;56.06;101798.28;4981642;28;120085;-71
2022/10/06 09:34:45;;;;;;;;;;;;;;;19.13;56.19;101810.25;4984602;28;120153;-71
2022/10/06 09:37:12;;;;;;;;;;;;;;;19.13;55.43;101815.81;4979660;28;120329;-71
2022/10/06 09:39:39;;;;;;;;;;;;;;;19.11;55.46;101818.31;4982245;28;120140;-71
2022/10/06 09:42:08;;;;;;;;;;;;;;;19.09;55.24;101812.47;4981216;28;121902;-71
2022/10/06 09:44:54;;;;;;;;;;;;;;;19.08;55.71;101805.38;4984449;28;120251;-71
2022/10/06 09:47:45;;;;;;;;;;;;;;;19.06;55.29;101805.84;4979650;28;119874;-71
2022/10/06 09:50:14;;;;;;;;;;;;;;;19.08;55.42;101813.72;4978698;28;119668;-71
2022/10/06 09:52:41;;;;;;;;;;;;;;;19.12;56.04;101830.97;4977072;28;119931;-71
2022/10/06 09:55:17;;;;;;;;;;;;;;;19.20;56.18;101830.09;4976991;28;120068;-71
2022/10/06 09:57:50;;;;;;;;;;;;;;;19.25;55.68;101825.88;4979618;28;120026;-71
2022/10/06 10:00:34;;;;;;;;;;;;;;;19.26;55.87;101838.53;4980220;28;119583;-71
2022/10/06 10:03:01;;;;;;;;;;;;;;;19.20;55.30;101834.91;4978708;28;119426;-71
2022/10/06 10:05:35;;;;;;;;;;;;;;;19.09;55.48;101835.47;4977088;28;120165;-71
2022/10/06 10:08:12;;;;;;;;;;;;;;;19.02;55.80;101839.44;4971552;28;120055;-71
2022/10/06 10:10:38;;;;;;;;;;;;;;;19.06;56.22;101846.81;4986506;28;119972;-71
2022/10/06 10:13:16;;;;;;;;;;;;;;;19.11;56.58;101852.44;4993446;28;119869;-71
2022/10/06 10:15:52;;;;;;;;;;;;;;;19.26;56.83;101866.34;4972569;28;120635;-71
2022/10/06 10:18:21;;;;;;;;;;;;;;;19.39;56.54;101875.13;4989600;28;120158;-71
2022/10/06 10:20:53;;;;;;;;;;;;;;;19.46;55.91;101868.41;4981549;28;119499;-71
2022/10/06 10:23:24;;;;;;;;;;;;;;;19.46;55.40;101874.75;4980864;28;119950;-71
2022/10/06 10:26:00;;;;;;;;;;;;;;;19.41;55.81;101872.66;4976601;28;119811;-71
2022/10/06 10:28:46;;;;;;;;;;;;;;;19.45;55.82;101873.22;4980317;28;121150;-71
2022/10/06 10:31:19;;;;;;;;;;;;;;;19.46;55.40;101879.56;4978265;28;119916;-71
2022/10/06 10:33:48;;;;;;;;;;;;;;;19.44;55.39;101877.25;4980324;28;120266;-71
2022/10/06 10:36:15;;;;;;;;;;;;;;;19.41;55.33;101885.81;4980165;28;119943;-71
2022/10/06 10:38:42;;;;;;;;;;;;;;;19.38;55.42;101881.94;4981846;28;120199;-71
2022/10/06 10:41:24;;;;;;;;;;;;;;;19.40;55.52;101890.59;4983228;28;120219;-70
2022/10/06 10:43:50;;;;;;;;;;;;;;;19.45;55.96;101900.28;4983154;28;120085;-71
2022/10/06 10:46:15;;;;;;;;;;;;;;;19.49;55.76;101893.25;4982409;28;119980;-71
2022/10/06 10:49:02;;;;;;;;;;;;;;;19.60;55.70;101903.81;4982762;28;119485;-71
2022/10/06 10:51:33;;;;;;;;;;;;;;;19.71;55.71;101895.63;4982173;28;119861;-71
2022/10/06 10:54:12;;;;;;;;;;;;;;;19.75;55.45;101895.41;4982463;28;119946;-71
2022/10/06 10:56:40;;;;;;;;;;;;;;;19.77;55.04;101904.06;4985153;28;120004;-71
2022/10/06 10:59:14;;;;;;;;;;;;;;;19.77;55.08;101910.38;4981999;28;120041;-71
2022/10/06 11:01:44;;;;;;;;;;;;;;;19.78;54.48;101916.72;4980020;28;120786;-72
2022/10/06 11:04:11;;;;;;;;;;;;;;;19.76;54.64;101913.66;4978343;28;119985;-71
2022/10/06 11:06:36;;;;;;;;;;;;;;;19.75;54.13;101926.03;4961674;28;119864;-71
2022/10/06 11:09:02;;;;;;;;;;;;;;;19.70;53.73;101926.75;4979067;28;119870;-71
2022/10/06 11:11:30;;;;;;;;;;;;;;;19.69;53.51;101930.78;4978632;28;120037;-71
2022/10/06 11:14:02;;;;;;;;;;;;;;;19.66;53.54;101924.16;4979487;28;119752;-71
2022/10/06 11:16:31;;;;;;;;;;;;;;;19.65;53.98;101924.66;4983385;28;120038;-71
2022/10/06 11:19:13;;;;;;;;;;;;;;;19.65;54.05;101941.34;4981814;28;119965;-71
2022/10/06 11:21:49;;;;;;;;;;;;;;;19.71;54.30;101922.69;4977354;28;120100;-71
2022/10/06 11:24:41;;;;;;;;;;;;;;;19.78;54.10;101931.41;4980366;28;121356;-71
2022/10/06 11:27:20;;;;;;;;;;;;;;;19.84;53.71;101948.19;4966667;28;119945;-71
2022/10/06 11:30:04;;;;;;;;;;;;;;;19.88;53.75;101946.00;4982784;28;119882;-71
2022/10/06 11:32:38;;;;;;;;;;;;;;;19.91;53.65;101943.00;4982362;28;120542;-71
2022/10/06 11:35:15;;;;;;;;;;;;;;;19.96;53.74;101938.75;4984587;28;119692;-71
2022/10/06 11:38:01;;;;;;;;;;;;;;;20.01;53.78;101949.19;4974869;28;119967;-71
2022/10/06 11:40:30;;;;;;;;;;;;;;;20.06;53.42;101944.94;4978410;28;120144;-71
2022/10/06 11:43:08;;;;;;;;;;;;;;;20.01;53.18;101956.78;4980551;28;119312;-71
2022/10/06 11:45:46;;;;;;;;;;;;;;;19.90;53.53;101958.16;4978069;28;119560;-73
2022/10/06 11:48:15;;;;;;;;;;;;;;;19.77;53.59;101966.06;4984442;28;119725;-72
2022/10/06 11:50:41;;;;;;;;;;;;;;;19.67;54.42;101961.13;4979128;28;119970;-72
2022/10/06 11:53:25;;;;;;;;;;;;;;;19.59;54.96;101967.06;4978885;28;119857;-72
2022/10/06 11:56:10;;;;;;;;;;;;;;;19.53;55.31;101962.63;4976822;28;120007;-72
2022/10/06 11:58:51;;;;;;;;;;;;;;;19.50;55.67;101961.56;4975118;28;119746;-72
2022/10/06 12:01:38;;;;;;;;;;;;;;;19.53;55.53;101962.63;4981671;28;120024;-73
2022/10/06 12:04:28;;;;;;;;;;;;;;;19.54;54.90;101975.31;4982038;28;119971;-73
2022/10/06 12:06:55;;;;;;;;;;;;;;;19.55;54.53;101977.63;4958662;28;121869;-72
2022/10/06 12:09:44;;;;;;;;;;;;;;;19.53;54.06;101970.97;4932410;28;119823;-72
2022/10/06 12:12:13;;;;;;;;;;;;;;;19.59;53.72;101969.84;4929554;28;120061;-73
2022/10/06 12:14:59;;;;;;;;;;;;;;;19.70;53.83;101977.59;4923808;28;119910;-72
2022/10/06 12:17:27;;;;;;;;;;;;;;;19.75;53.03;101973.38;4946229;28;120304;-72
2022/10/06 12:20:11;;;;;;;;;;;;;;;19.76;52.85;101980.47;4946432;28;119811;-73
2022/10/06 12:22:42;;;;;;;;;;;;;;;19.77;52.77;101979.22;4925793;28;119956;-73
2022/10/06 12:25:14;;;;;;;;;;;;;;;19.77;52.69;101990.34;4940667;28;120087;-72
2022/10/06 12:28:00;;;;;;;;;;;;;;;19.78;52.78;101991.88;4949013;28;120079;-73
2022/10/06 12:30:29;;;;;;;;;;;;;;;19.78;53.17;101977.97;4945049;28;120015;-72
2022/10/06 12:32:55;;;;;;;;;;;;;;;19.81;53.51;101988.13;4927241;28;119259;-73
2022/10/06 12:36:03;;;;;;;;;;;;;;;19.82;53.64;101984.09;4877022;28;120408;-73
2022/10/06 12:38:40;;;;;;;;;;;;;;;19.81;53.67;101993.72;4933803;28;120117;-72
2022/10/06 12:41:12;;;;;;;;;;;;;;;19.76;53.33;102003.50;4945342;28;120319;-72
2022/10/06 12:44:04;;;;;;;;;;;;;;;19.69;53.01;102001.13;4940946;28;120147;-73
2022/10/06 12:46:42;;;;;;;;;;;;;;;19.62;52.89;101988.34;4954489;28;120313;-72
2022/10/06 12:49:25;;;;;;;;;;;;;;;19.56;52.98;101990.28;4983647;28;120487;-73
2022/10/06 12:51:52;;;;;;;;;;;;;;;19.53;53.28;101991.25;4972126;28;120974;-72
2022/10/06 12:54:32;;;;;;;;;;;;;;;19.50;53.17;101992.19;4985698;28;120242;-72